Time;durP1;ratioP1;P1;durP2;ratioP2;P2;SDS_P1;SDS_P2;PMS_P1;PMS_P2;Temp;Humidity;BMP_temperature;BMP_pressure;BME280_temperature;BME280_humidity;BME280_pressure;Samples;Min_cycle;Max_cycle;Signal;HPM_P1;HPM_P2
2021/12/02 00:01:35;;;;;;;1.90;0.80;;;;;;;-145.18;100.00;60484.78;5042687;28;20032;-73
2021/12/02 00:04:00;;;;;;;4.80;0.80;;;;;;;-145.18;100.00;60484.78;5043203;28;20045;-73
2021/12/02 00:06:26;;;;;;;6.93;1.07;;;;;;;-145.18;100.00;60484.78;5036752;28;20315;-73
2021/12/02 00:08:52;;;;;;;5.37;1.27;;;;;;;-145.18;100.00;60484.78;5043251;28;20516;-74
2021/12/02 00:11:18;;;;;;;5.37;1.00;;;;;;;-145.18;100.00;60484.78;5043027;28;20130;-74
2021/12/02 00:16:22;;;;;;;;;;;;;;;-145.18;100.00;60484.78;5043388;28;20763;-74
2021/12/02 00:21:26;;;;;;;6.50;1.47;;;;;;;-145.18;100.00;60484.78;5042906;28;21013;-74
2021/12/02 00:24:00;;;;;;;10.03;1.80;;;;;;;-145.18;100.00;60484.78;5042594;28;20662;-75
2021/12/02 00:26:27;;;;;;;4.77;0.80;;;;;;;-145.18;100.00;60484.78;5042440;28;20288;-74
2021/12/02 00:28:56;;;;;;;4.10;0.70;;;;;;;-145.18;100.00;60484.78;5039863;28;20275;-74
2021/12/02 00:31:23;;;;;;;5.63;1.57;;;;;;;-145.18;100.00;60484.78;5040756;28;20629;-74
2021/12/02 00:33:56;;;;;;;3.77;1.00;;;;;;;-145.18;100.00;60484.78;5042252;28;20645;-74
2021/12/02 00:36:26;;;;;;;8.88;1.42;;;;;;;-145.18;100.00;60484.78;5042633;28;20274;-74
2021/12/02 00:38:53;;;;;;;4.80;0.80;;;;;;;-145.18;100.00;60484.78;5041639;28;20100;-74
2021/12/02 00:41:21;;;;;;;8.20;2.50;;;;;;;-145.18;100.00;60484.78;5041394;28;20291;-74
2021/12/02 00:43:49;;;;;;;9.63;1.10;;;;;;;-145.18;100.00;60484.78;5042162;28;20287;-74
2021/12/02 00:46:18;;;;;;;3.53;1.00;;;;;;;-145.18;100.00;60484.78;5041837;28;20629;-74
2021/12/02 00:48:45;;;;;;;5.10;1.03;;;;;;;-145.18;100.00;60484.78;5042555;28;20344;-74
2021/12/02 00:51:11;;;;;;;3.43;1.30;;;;;;;-145.18;100.00;60484.78;5042392;28;20333;-74
2021/12/02 00:53:42;;;;;;;2.37;0.80;;;;;;;-145.18;100.00;60484.78;5041575;28;20980;-74
2021/12/02 00:56:10;;;;;;;7.10;1.00;;;;;;;-145.18;100.00;60484.78;5041852;28;20294;-74
2021/12/02 00:58:37;;;;;;;8.77;1.17;;;;;;;-145.18;100.00;60484.78;5042267;28;20283;-75
2021/12/02 01:01:03;;;;;;;3.20;1.40;;;;;;;-145.18;100.00;60484.78;5040811;28;20799;-74
2021/12/02 01:03:37;;;;;;;4.87;1.30;;;;;;;-145.18;100.00;60484.78;5041593;28;20343;-74
2021/12/02 01:06:05;;;;;;;5.47;1.43;;;;;;;-145.18;100.00;60484.78;5038334;28;20358;-75
2021/12/02 01:08:32;;;;;;;4.57;0.97;;;;;;;-145.18;100.00;60484.78;5042021;28;20936;-75
2021/12/02 01:10:58;;;;;;;4.97;1.20;;;;;;;-145.18;100.00;60484.78;5040043;28;20264;-74
2021/12/02 01:13:23;;;;;;;7.00;1.40;;;;;;;-145.18;100.00;60484.78;5041423;28;20283;-74
2021/12/02 01:15:49;;;;;;;7.83;1.80;;;;;;;-145.18;100.00;60484.78;5041350;28;20707;-74
2021/12/02 01:18:14;;;;;;;15.03;2.37;;;;;;;-145.18;100.00;60484.78;5041747;28;20498;-74
2021/12/02 01:20:44;;;;;;;5.97;1.20;;;;;;;-145.18;100.00;60484.78;5040430;28;20028;-74
2021/12/02 01:23:09;;;;;;;8.23;1.80;;;;;;;-145.18;100.00;60484.78;5041126;28;20025;-74
2021/12/02 01:25:36;;;;;;;5.27;1.17;;;;;;;-145.18;100.00;60484.78;5039962;28;20310;-74
2021/12/02 01:28:02;;;;;;;4.70;1.10;;;;;;;-145.18;100.00;60484.78;5036806;28;20149;-74
2021/12/02 01:30:30;;;;;;;3.30;0.90;;;;;;;-145.18;100.00;60484.78;5041183;28;20295;-74
2021/12/02 01:33:04;;;;;;;7.43;2.33;;;;;;;-145.18;100.00;60484.78;5039445;28;20166;-74
2021/12/02 01:35:31;;;;;;;5.10;0.97;;;;;;;-145.18;100.00;60484.78;5036301;28;20779;-74
2021/12/02 01:37:57;;;;;;;8.63;2.00;;;;;;;-145.18;100.00;60484.78;5040625;28;20775;-74
2021/12/02 01:40:24;;;;;;;7.63;0.93;;;;;;;-145.18;100.00;60484.78;5040866;28;20275;-74
2021/12/02 01:42:58;;;;;;;6.37;1.33;;;;;;;-145.18;100.00;60484.78;5040387;28;20291;-74
2021/12/02 01:45:26;;;;;;;5.73;1.60;;;;;;;-145.18;100.00;60484.78;5037972;28;20401;-75
2021/12/02 01:47:54;;;;;;;3.50;1.30;;;;;;;-145.18;100.00;60484.78;5041051;28;20278;-74
2021/12/02 01:50:22;;;;;;;3.80;1.23;;;;;;;-145.18;100.00;60484.78;5038250;28;20260;-74
2021/12/02 01:53:00;;;;;;;4.07;1.20;;;;;;;-145.18;100.00;60484.78;5040108;28;20275;-74
2021/12/02 01:55:29;;;;;;;5.80;1.13;;;;;;;-145.18;100.00;60484.78;5041129;28;20279;-75
2021/12/02 01:58:00;;;;;;;9.53;1.40;;;;;;;-145.18;100.00;60484.78;5041033;28;20320;-75
2021/12/02 02:00:41;;;;;;;4.57;0.90;;;;;;;-145.18;100.00;60484.78;5040906;28;20302;-74
2021/12/02 02:03:08;;;;;;;4.67;1.50;;;;;;;-145.18;100.00;60484.78;5040015;28;20714;-74
2021/12/02 02:05:33;;;;;;;7.87;1.20;;;;;;;-145.18;100.00;60484.78;5077787;23;20329;-69
2021/12/02 02:08:09;;;;;;;5.47;1.13;;;;;;;-145.18;100.00;60484.78;5059974;28;20286;-68
2021/12/02 02:10:38;;;;;;;6.07;1.27;;;;;;;-145.18;100.00;60484.78;5059296;28;20373;-68
2021/12/02 02:13:07;;;;;;;3.27;1.10;;;;;;;-145.18;100.00;60484.78;5059433;28;20394;-68
2021/12/02 02:15:34;;;;;;;5.17;1.03;;;;;;;-145.18;100.00;60484.78;5059395;28;20281;-68
2021/12/02 02:20:40;;;;;;;7.77;1.20;;;;;;;-145.18;100.00;60484.78;5059091;28;20313;-69
2021/12/02 02:23:09;;;;;;;5.53;1.63;;;;;;;-145.18;100.00;60484.78;5058627;28;20558;-68
2021/12/02 02:25:34;;;;;;;5.77;1.97;;;;;;;-145.18;100.00;60484.78;5058577;28;20289;-68
2021/12/02 02:28:00;;;;;;;6.13;1.13;;;;;;;-145.18;100.00;60484.78;5059391;28;20278;-68
2021/12/02 02:30:25;;;;;;;10.23;2.30;;;;;;;-145.18;100.00;60484.78;5058980;28;20068;-68
2021/12/02 02:32:51;;;;;;;7.37;1.00;;;;;;;-145.18;100.00;60484.78;5058888;28;20028;-68
2021/12/02 02:35:16;;;;;;;7.57;1.00;;;;;;;-145.18;100.00;60484.78;5060829;28;20020;-68
2021/12/02 02:37:42;;;;;;;7.27;1.73;;;;;;;-145.18;100.00;60484.78;5063482;28;20176;-69
2021/12/02 02:40:10;;;;;;;3.27;0.90;;;;;;;-145.18;100.00;60484.78;5063667;28;20021;-68
2021/12/02 02:42:36;;;;;;;10.47;1.80;;;;;;;-145.18;100.00;60484.78;5063297;28;20270;-68
2021/12/02 02:45:03;;;;;;;2.57;1.17;;;;;;;-145.18;100.00;60484.78;5062343;28;20280;-69
2021/12/02 02:47:29;;;;;;;6.93;0.97;;;;;;;-145.18;100.00;60484.78;5062180;28;20747;-68
2021/12/02 02:49:55;;;;;;;9.00;1.30;;;;;;;-145.18;100.00;60484.78;5062238;28;20577;-68
2021/12/02 02:52:20;;;;;;;6.27;1.57;;;;;;;-145.18;100.00;60484.78;5063334;28;20419;-68
2021/12/02 02:54:46;;;;;;;4.67;1.50;;;;;;;-145.18;100.00;60484.78;5062625;28;20324;-68
2021/12/02 02:57:14;;;;;;;9.07;1.20;;;;;;;-145.18;100.00;60484.78;5061884;28;20423;-68
2021/12/02 03:00:02;;;;;;;7.70;2.17;;;;;;;-145.18;100.00;60484.78;5062144;28;20426;-68
2021/12/02 03:02:38;;;;;;;2.33;1.30;;;;;;;-145.18;100.00;60484.78;5062506;28;20277;-68
2021/12/02 03:08:17;;;;;;;3.30;0.77;;;;;;;-145.18;100.00;60484.78;4956921;28;20739;-68
2021/12/02 03:10:45;;;;;;;5.73;1.20;;;;;;;-145.18;100.00;60484.78;4956354;28;20388;-68
2021/12/02 03:13:34;;;;;;;13.70;2.07;;;;;;;-145.18;100.00;60484.78;4960550;28;20781;-68
2021/12/02 03:18:44;;;;;;;3.43;1.23;;;;;;;-145.18;100.00;60484.78;4955159;28;20342;-68
2021/12/02 03:21:21;;;;;;;6.00;1.83;;;;;;;-145.18;100.00;60484.78;4953492;28;20290;-68
2021/12/02 03:23:59;;;;;;;6.43;1.30;;;;;;;-145.18;100.00;60484.78;4955638;28;20042;-68
2021/12/02 03:26:26;;;;;;;3.50;1.17;;;;;;;-145.18;100.00;60484.78;4951071;28;20451;-68
2021/12/02 03:28:52;;;;;;;9.50;2.17;;;;;;;-145.18;100.00;60484.78;4954004;28;20274;-68
2021/12/02 03:31:19;;;;;;;6.33;2.20;;;;;;;-145.18;100.00;60484.78;4958218;28;20377;-68
2021/12/02 03:33:44;;;;;;;8.30;1.40;;;;;;;-145.18;100.00;60484.78;4959797;28;20384;-68
2021/12/02 03:36:11;;;;;;;5.03;1.50;;;;;;;-145.18;100.00;60484.78;4959531;28;20333;-68
2021/12/02 03:38:37;;;;;;;15.90;2.10;;;;;;;-145.18;100.00;60484.78;4959937;28;20038;-68
2021/12/02 03:41:04;;;;;;;3.53;1.13;;;;;;;-145.18;100.00;60484.78;4959314;28;20298;-68
2021/12/02 03:43:38;;;;;;;6.33;1.47;;;;;;;-145.18;100.00;60484.78;5001789;28;20400;-68
2021/12/02 03:46:04;;;;;;;7.80;1.43;;;;;;;-145.18;100.00;60484.78;5057170;28;20321;-68
2021/12/02 03:48:29;;;;;;;4.10;0.93;;;;;;;-145.18;100.00;60484.78;5061450;28;20267;-68
2021/12/02 03:50:55;;;;;;;5.43;1.27;;;;;;;-145.18;100.00;60484.78;5060916;28;20824;-68
2021/12/02 03:53:21;;;;;;;5.60;1.23;;;;;;;-145.18;100.00;60484.78;5062046;28;20078;-68
2021/12/02 03:55:46;;;;;;;4.17;1.13;;;;;;;-145.18;100.00;60484.78;5062350;28;20048;-68
2021/12/02 03:58:12;;;;;;;3.80;1.17;;;;;;;-145.18;100.00;60484.78;5060553;28;20033;-68
2021/12/02 04:00:37;;;;;;;4.03;0.90;;;;;;;-145.18;100.00;60484.78;5059100;28;20064;-68
2021/12/02 04:03:03;;;;;;;4.97;1.03;;;;;;;-145.18;100.00;60484.78;5061435;28;20029;-68
2021/12/02 04:05:28;;;;;;;5.33;1.03;;;;;;;-145.18;100.00;60484.78;5061648;28;20294;-68
2021/12/02 04:07:54;;;;;;;3.83;1.03;;;;;;;-145.18;100.00;60484.78;5061895;28;20052;-68
2021/12/02 04:10:20;;;;;;;8.87;1.10;;;;;;;-145.18;100.00;60484.78;5061979;28;20039;-68
2021/12/02 04:15:41;;;;;;;6.63;1.40;;;;;;;-145.18;100.00;60484.78;4978615;28;21011;-68
2021/12/02 04:18:07;;;;;;;3.57;1.00;;;;;;;-145.18;100.00;60484.78;4975121;28;20479;-69
2021/12/02 04:20:33;;;;;;;3.40;1.13;;;;;;;-145.18;100.00;60484.78;4978561;28;20186;-68
2021/12/02 04:22:59;;;;;;;3.23;1.00;;;;;;;-145.18;100.00;60484.78;4979347;28;20309;-69
2021/12/02 04:25:26;;;;;;;5.83;1.40;;;;;;;-145.18;100.00;60484.78;4978921;28;20317;-68
2021/12/02 04:27:52;;;;;;;6.23;1.27;;;;;;;-145.18;100.00;60484.78;4978614;28;20097;-68
2021/12/02 04:30:23;;;;;;;4.37;0.80;;;;;;;-145.18;100.00;60484.78;4978886;28;20285;-68
2021/12/02 04:32:49;;;;;;;10.67;1.30;;;;;;;-145.18;100.00;60484.78;4978076;28;20289;-68
2021/12/02 04:35:15;;;;;;;5.40;1.57;;;;;;;-145.18;100.00;60484.78;4978544;28;20343;-68
2021/12/02 04:37:43;;;;;;;4.50;1.23;;;;;;;-145.18;100.00;60484.78;4978360;28;20117;-68
2021/12/02 04:40:10;;;;;;;5.97;1.67;;;;;;;-145.18;100.00;60484.78;4978745;28;20301;-68
2021/12/02 04:42:35;;;;;;;4.80;1.43;;;;;;;-145.18;100.00;60484.78;4978320;28;20371;-69
2021/12/02 04:45:01;;;;;;;3.07;0.87;;;;;;;-145.18;100.00;60484.78;4978264;28;20340;-68
2021/12/02 04:47:26;;;;;;;8.47;1.20;;;;;;;-145.18;100.00;60484.78;4982871;28;20384;-68
2021/12/02 04:49:51;;;;;;;5.40;1.20;;;;;;;-145.18;100.00;60484.78;4978587;28;20038;-68
2021/12/02 04:52:17;;;;;;;4.97;1.43;;;;;;;-145.18;100.00;60484.78;5023805;28;20450;-69
2021/12/02 04:54:43;;;;;;;4.13;1.00;;;;;;;-145.18;100.00;60484.78;5059544;28;20039;-68
2021/12/02 04:57:08;;;;;;;3.67;1.43;;;;;;;-145.18;100.00;60484.78;5060403;28;20056;-68
2021/12/02 04:59:34;;;;;;;4.33;1.57;;;;;;;-145.18;100.00;60484.78;5059277;28;20020;-68
2021/12/02 05:01:59;;;;;;;3.97;1.10;;;;;;;-145.18;100.00;60484.78;5060174;28;20043;-68
2021/12/02 05:04:25;;;;;;;6.67;1.40;;;;;;;-145.18;100.00;60484.78;5059866;28;20570;-68
2021/12/02 05:06:50;;;;;;;3.63;1.50;;;;;;;-145.18;100.00;60484.78;5062363;28;20166;-68
2021/12/02 05:09:15;;;;;;;10.60;2.30;;;;;;;-145.18;100.00;60484.78;5060411;28;20332;-69
2021/12/02 05:11:41;;;;;;;3.53;1.20;;;;;;;-145.18;100.00;60484.78;5060140;28;20538;-67
2021/12/02 05:14:08;;;;;;;4.20;1.30;;;;;;;-145.18;100.00;60484.78;5060321;28;20033;-68
2021/12/02 05:16:35;;;;;;;9.30;1.10;;;;;;;-145.18;100.00;60484.78;5065905;28;20040;-68
2021/12/02 05:19:01;;;;;;;0.87;0.70;;;;;;;-145.18;100.00;60484.78;5059428;28;20269;-68
2021/12/02 05:21:26;;;;;;;1.70;0.70;;;;;;;-145.18;100.00;60484.78;5062328;28;20290;-68
2021/12/02 05:23:54;;;;;;;3.10;1.20;;;;;;;-145.18;100.00;60484.78;5059169;28;20028;-68
2021/12/02 05:26:24;;;;;;;2.63;0.63;;;;;;;-145.18;100.00;60484.78;5059511;28;20493;-69
2021/12/02 05:28:53;;;;;;;8.10;1.23;;;;;;;-145.18;100.00;60484.78;5060171;28;20287;-68
2021/12/02 05:31:20;;;;;;;6.90;2.00;;;;;;;-145.18;100.00;60484.78;5059419;28;20342;-69
2021/12/02 05:33:46;;;;;;;1.03;0.60;;;;;;;-145.18;100.00;60484.78;5059327;28;20592;-68
2021/12/02 05:36:12;;;;;;;3.63;0.80;;;;;;;-145.18;100.00;60484.78;5058575;28;20294;-69
2021/12/02 05:38:40;;;;;;;1.63;0.70;;;;;;;-145.18;100.00;60484.78;5062747;28;20278;-68
2021/12/02 05:41:06;;;;;;;1.77;0.90;;;;;;;-145.18;100.00;60484.78;5057537;28;20044;-68
2021/12/02 05:43:32;;;;;;;4.10;0.80;;;;;;;-145.18;100.00;60484.78;5060324;28;20407;-68
2021/12/02 05:45:57;;;;;;;4.00;0.87;;;;;;;-145.18;100.00;60484.78;5059119;28;20036;-68
2021/12/02 05:48:23;;;;;;;3.47;0.90;;;;;;;-145.18;100.00;60484.78;5058988;28;20095;-73
2021/12/02 05:50:49;;;;;;;4.07;0.93;;;;;;;-145.18;100.00;60484.78;5056441;28;20222;-68
2021/12/02 05:53:16;;;;;;;2.10;0.80;;;;;;;-145.18;100.00;60484.78;5054742;28;20029;-68
2021/12/02 05:55:41;;;;;;;2.00;0.97;;;;;;;-145.18;100.00;60484.78;5055962;28;20287;-68
2021/12/02 05:58:07;;;;;;;1.07;0.80;;;;;;;-145.18;100.00;60484.78;5058862;28;20754;-68
2021/12/02 06:00:36;;;;;;;2.20;0.90;;;;;;;-145.18;100.00;60484.78;5058819;28;20046;-68
2021/12/02 06:03:01;;;;;;;5.93;1.00;;;;;;;-145.18;100.00;60484.78;5056963;28;20081;-68
2021/12/02 06:05:27;;;;;;;2.80;1.47;;;;;;;-145.18;100.00;60484.78;5061900;28;20299;-68
2021/12/02 06:07:56;;;;;;;5.13;1.17;;;;;;;-145.18;100.00;60484.78;5059517;28;20507;-68
2021/12/02 06:10:22;;;;;;;6.77;1.90;;;;;;;-145.18;100.00;60484.78;5058823;28;20620;-68
2021/12/02 06:12:48;;;;;;;3.00;1.07;;;;;;;-145.18;100.00;60484.78;5058592;28;20381;-68
2021/12/02 06:15:13;;;;;;;1.73;0.90;;;;;;;-145.18;100.00;60484.78;5057536;28;20213;-67
2021/12/02 06:17:39;;;;;;;4.73;1.00;;;;;;;-145.18;100.00;60484.78;5059023;28;20044;-67
2021/12/02 06:20:06;;;;;;;4.43;1.30;;;;;;;-145.18;100.00;60484.78;5059321;28;20024;-67
2021/12/02 06:22:33;;;;;;;3.30;1.40;;;;;;;-145.18;100.00;60484.78;5057861;28;20278;-67
2021/12/02 06:27:57;;;;;;;12.50;2.70;;;;;;;-145.18;100.00;60484.78;5050195;28;20279;-67
2021/12/02 06:30:24;;;;;;;4.70;1.60;;;;;;;-145.18;100.00;60484.78;5056935;28;20579;-67
2021/12/02 06:32:51;;;;;;;4.60;1.57;;;;;;;-145.18;100.00;60484.78;5058682;28;20884;-68
2021/12/02 06:35:17;;;;;;;4.77;2.00;;;;;;;-145.18;100.00;60484.78;5058721;28;20637;-68
2021/12/02 06:37:45;;;;;;;12.07;1.53;;;;;;;-145.18;100.00;60484.78;5058383;28;20285;-68
2021/12/02 06:40:12;;;;;;;5.43;1.13;;;;;;;-145.18;100.00;60484.78;5045816;28;20359;-68
2021/12/02 06:42:39;;;;;;;4.40;1.23;;;;;;;-145.18;100.00;60484.78;5057028;28;20641;-68
2021/12/02 06:45:05;;;;;;;5.57;1.43;;;;;;;-145.18;100.00;60484.78;5058665;28;20293;-68
2021/12/02 06:47:34;;;;;;;5.73;3.07;;;;;;;-145.18;100.00;60484.78;5057810;28;20262;-68
2021/12/02 06:50:02;;;;;;;3.77;1.27;;;;;;;-145.18;100.00;60484.78;5058678;28;20166;-68
2021/12/02 06:52:28;;;;;;;11.67;1.70;;;;;;;-145.18;100.00;60484.78;5060055;28;20623;-68
2021/12/02 06:54:54;;;;;;;4.00;1.27;;;;;;;-145.18;100.00;60484.78;5058882;28;20453;-67
2021/12/02 06:57:20;;;;;;;3.93;1.10;;;;;;;-145.18;100.00;60484.78;5058652;28;20040;-68
2021/12/02 06:59:45;;;;;;;5.17;1.57;;;;;;;-145.18;100.00;60484.78;5058797;28;20766;-68
2021/12/02 07:02:11;;;;;;;2.43;1.00;;;;;;;-145.18;100.00;60484.78;5046620;28;20033;-68
2021/12/02 07:04:37;;;;;;;6.30;1.37;;;;;;;-145.18;100.00;60484.78;5046245;28;20141;-68
2021/12/02 07:07:02;;;;;;;4.20;1.30;;;;;;;-145.18;100.00;60484.78;5057140;28;20040;-67
2021/12/02 07:09:28;;;;;;;2.93;1.10;;;;;;;-145.18;100.00;60484.78;5046508;28;20216;-68
2021/12/02 07:11:53;;;;;;;3.43;1.40;;;;;;;-145.18;100.00;60484.78;5058127;28;20162;-68
2021/12/02 07:14:20;;;;;;;2.90;1.00;;;;;;;-145.18;100.00;60484.78;5058426;28;20504;-68
2021/12/02 07:16:46;;;;;;;7.63;1.83;;;;;;;-145.18;100.00;60484.78;5068271;28;20192;-68
2021/12/02 07:19:12;;;;;;;36.53;2.50;;;;;;;-145.18;100.00;60484.78;5058716;28;20271;-68
2021/12/02 07:21:39;;;;;;;2.93;1.33;;;;;;;-145.18;100.00;60484.78;5058621;28;20028;-68
2021/12/02 07:24:10;;;;;;;3.13;1.30;;;;;;;-145.18;100.00;60484.78;5061932;28;20039;-68
2021/12/02 07:26:41;;;;;;;3.33;1.60;;;;;;;-145.18;100.00;60484.78;5060471;28;20318;-68
2021/12/02 07:29:15;;;;;;;3.53;1.67;;;;;;;-145.18;100.00;60484.78;5062107;28;20266;-68
2021/12/02 07:31:41;;;;;;;4.10;1.47;;;;;;;-145.18;100.00;60484.78;5061881;28;20380;-68
2021/12/02 07:34:07;;;;;;;3.27;1.40;;;;;;;-145.18;100.00;60484.78;5060624;28;20397;-68
2021/12/02 07:36:34;;;;;;;7.07;2.20;;;;;;;-145.18;100.00;60484.78;5061358;28;20274;-68
2021/12/02 07:39:01;;;;;;;5.63;1.80;;;;;;;-145.18;100.00;60484.78;5061871;28;20277;-68
2021/12/02 07:41:27;;;;;;;5.33;1.70;;;;;;;-145.18;100.00;60484.78;5065437;28;20286;-68
2021/12/02 07:43:52;;;;;;;6.63;2.17;;;;;;;-145.18;100.00;60484.78;5061308;28;20338;-68
2021/12/02 07:46:18;;;;;;;4.77;1.33;;;;;;;-145.18;100.00;60484.78;5058444;28;20271;-69
2021/12/02 07:48:43;;;;;;;6.27;1.77;;;;;;;-145.18;100.00;60484.78;5061587;28;20020;-68
2021/12/02 07:51:11;;;;;;;8.37;1.90;;;;;;;-145.18;100.00;60484.78;5061236;28;20600;-68
2021/12/02 07:53:41;;;;;;;5.37;1.60;;;;;;;-145.18;100.00;60484.78;5061139;28;20032;-68
2021/12/02 07:56:09;;;;;;;4.87;1.43;;;;;;;-145.18;100.00;60484.78;5065826;28;20282;-68
2021/12/02 07:58:35;;;;;;;4.20;1.70;;;;;;;-145.18;100.00;60484.78;5069848;28;20765;-68
2021/12/02 08:01:02;;;;;;;8.33;2.20;;;;;;;-145.18;100.00;60484.78;5060669;28;20301;-68
2021/12/02 08:03:29;;;;;;;7.17;2.10;;;;;;;-145.18;100.00;60484.78;5054240;28;20271;-68
2021/12/02 08:05:55;;;;;;;7.83;2.90;;;;;;;-145.18;100.00;60484.78;5059069;28;20631;-68
2021/12/02 08:08:20;;;;;;;5.23;1.40;;;;;;;-145.18;100.00;60484.78;5062859;28;20270;-68
2021/12/02 08:10:46;;;;;;;4.57;1.80;;;;;;;-145.18;100.00;60484.78;5060963;28;20307;-68
2021/12/02 08:13:13;;;;;;;4.17;2.20;;;;;;;-145.18;100.00;60484.78;5060560;28;20033;-68
2021/12/02 08:15:40;;;;;;;7.73;2.00;;;;;;;-145.18;100.00;60484.78;5060729;28;20029;-68
2021/12/02 08:18:05;;;;;;;5.87;2.33;;;;;;;-145.18;100.00;60484.78;5060106;28;20286;-68
2021/12/02 08:20:31;;;;;;;4.80;2.00;;;;;;;-145.18;100.00;60484.78;5060574;28;20290;-68
2021/12/02 08:22:57;;;;;;;4.57;1.67;;;;;;;-145.18;100.00;60484.78;5060012;28;20035;-68
2021/12/02 08:25:26;;;;;;;3.47;1.47;;;;;;;-145.18;100.00;60484.78;5060253;28;20274;-68
2021/12/02 08:27:53;;;;;;;3.30;1.37;;;;;;;-145.18;100.00;60484.78;5060127;28;20279;-68
2021/12/02 08:30:22;;;;;;;3.23;1.27;;;;;;;-145.18;100.00;60484.78;5046841;28;20564;-68
2021/12/02 08:32:48;;;;;;;3.47;1.47;;;;;;;-145.18;100.00;60484.78;5059018;28;20319;-68
2021/12/02 08:35:15;;;;;;;4.27;1.60;;;;;;;-145.18;100.00;60484.78;5059458;28;20274;-68
2021/12/02 08:37:44;;;;;;;4.67;1.60;;;;;;;-145.18;100.00;60484.78;5059464;28;20032;-68
2021/12/02 08:40:13;;;;;;;8.57;1.90;;;;;;;-145.18;100.00;60484.78;5058434;28;20267;-68
2021/12/02 08:42:38;;;;;;;7.23;1.93;;;;;;;-145.18;100.00;60484.78;5059749;28;20678;-68
2021/12/02 08:45:05;;;;;;;4.87;1.63;;;;;;;-145.18;100.00;60484.78;5059790;28;20259;-68
2021/12/02 08:47:30;;;;;;;5.13;1.93;;;;;;;-145.18;100.00;60484.78;5060254;28;20420;-70
2021/12/02 08:49:57;;;;;;;5.77;1.77;;;;;;;-145.18;100.00;60484.78;5059986;28;20281;-68
2021/12/02 08:52:25;;;;;;;6.10;1.97;;;;;;;-145.18;100.00;60484.78;5059131;28;20707;-68
2021/12/02 08:54:51;;;;;;;4.70;1.70;;;;;;;-145.18;100.00;60484.78;5059275;28;20274;-68
2021/12/02 08:57:19;;;;;;;6.37;1.80;;;;;;;-145.18;100.00;60484.78;5059045;28;20351;-68
2021/12/02 08:59:45;;;;;;;5.40;1.67;;;;;;;-145.18;100.00;60484.78;5053827;28;20379;-67
2021/12/02 09:02:11;;;;;;;3.80;1.63;;;;;;;-145.18;100.00;60484.78;5053388;28;20838;-68
2021/12/02 09:04:37;;;;;;;4.13;1.60;;;;;;;-145.18;100.00;60484.78;5056395;28;20348;-68
2021/12/02 09:07:03;;;;;;;3.40;1.47;;;;;;;-145.18;100.00;60484.78;5057837;28;20421;-68
2021/12/02 09:09:28;;;;;;;5.10;1.83;;;;;;;-145.18;100.00;60484.78;5059758;28;20289;-68
2021/12/02 09:11:56;;;;;;;7.33;2.10;;;;;;;-145.18;100.00;60484.78;5058636;28;21415;-68
2021/12/02 09:14:22;;;;;;;4.40;2.10;;;;;;;-145.18;100.00;60484.78;5059320;28;20032;-68
2021/12/02 09:16:49;;;;;;;6.10;1.97;;;;;;;-145.18;100.00;60484.78;5059094;28;20301;-68
2021/12/02 09:19:15;;;;;;;6.07;1.50;;;;;;;-145.18;100.00;60484.78;5059593;28;20031;-68
2021/12/02 09:21:40;;;;;;;4.50;1.60;;;;;;;-145.18;100.00;60484.78;5059134;28;20813;-68
2021/12/02 09:24:06;;;;;;;4.97;1.60;;;;;;;-145.18;100.00;60484.78;5056508;28;20082;-68
2021/12/02 09:26:32;;;;;;;5.80;2.07;;;;;;;-145.18;100.00;60484.78;5058053;28;20044;-68
2021/12/02 09:28:58;;;;;;;4.87;1.70;;;;;;;-145.18;100.00;60484.78;5059527;28;20320;-70
2021/12/02 09:31:24;;;;;;;4.70;1.73;;;;;;;-145.18;100.00;60484.78;5058458;28;20043;-68
2021/12/02 09:33:51;;;;;;;4.00;1.80;;;;;;;-145.18;100.00;60484.78;5058762;28;20032;-68
2021/12/02 09:36:18;;;;;;;4.87;1.83;;;;;;;-145.18;100.00;60484.78;5059064;28;20036;-68
2021/12/02 09:38:45;;;;;;;7.17;1.70;;;;;;;-145.18;100.00;60484.78;5059036;28;20090;-68
2021/12/02 09:41:10;;;;;;;2.93;1.47;;;;;;;-145.18;100.00;60484.78;5059073;28;20383;-69
2021/12/02 09:43:36;;;;;;;7.97;2.70;;;;;;;-145.18;100.00;60484.78;5057713;28;20059;-68
2021/12/02 09:46:02;;;;;;;7.57;2.40;;;;;;;-145.18;100.00;60484.78;5058625;28;20582;-68
2021/12/02 09:48:29;;;;;;;4.13;1.90;;;;;;;-145.18;100.00;60484.78;5058755;28;20025;-68
2021/12/02 09:51:12;;;;;;;4.63;1.50;;;;;;;-145.18;100.00;60484.78;5052724;28;20555;-68
2021/12/02 09:54:05;;;;;;;7.67;2.83;;;;;;;-145.18;100.00;60484.78;5052828;28;20447;-68
2021/12/02 09:56:29;;;;;;;4.00;1.60;;;;;;;-145.18;100.00;60484.78;5057647;28;20070;-68
2021/12/02 09:59:02;;;;;;;5.97;1.50;;;;;;;-145.18;100.00;60484.78;5058977;28;20032;-68
2021/12/02 10:01:39;;;;;;;4.20;2.00;;;;;;;-145.18;100.00;60484.78;5059108;28;20029;-68
2021/12/02 10:04:05;;;;;;;5.37;2.20;;;;;;;-145.18;100.00;60484.78;5041775;28;20383;-68
2021/12/02 10:06:32;;;;;;;4.23;2.10;;;;;;;-145.18;100.00;60484.78;5052485;28;20089;-68
2021/12/02 10:09:13;;;;;;;3.80;1.90;;;;;;;-145.18;100.00;60484.78;5045468;28;20187;-68
2021/12/02 10:11:56;;;;;;;5.53;1.77;;;;;;;-145.18;100.00;60484.78;5057451;28;20039;-68
2021/12/02 10:14:27;;;;;;;;;;;;;;;-145.18;100.00;60484.78;5059552;28;20275;-69
2021/12/02 10:17:21;;;;;;;4.07;1.60;;;;;;;-145.18;100.00;60484.78;5058781;28;19943;-68
2021/12/02 10:23:14;;;;;;;6.07;2.07;;;;;;;-145.18;100.00;60484.78;4962238;28;20653;-69
2021/12/02 10:25:46;;;;;;;4.03;1.70;;;;;;;-145.18;100.00;60484.78;4966776;28;20281;-68
2021/12/02 10:28:14;;;;;;;4.60;1.80;;;;;;;-145.18;100.00;60484.78;4967706;28;20361;-68
2021/12/02 10:30:43;;;;;;;6.07;1.97;;;;;;;-145.18;100.00;60484.78;4965652;28;20165;-68
2021/12/02 10:33:09;;;;;;;5.93;2.20;;;;;;;-145.18;100.00;60484.78;4971153;28;20649;-68
2021/12/02 10:35:41;;;;;;;4.27;1.67;;;;;;;-145.18;100.00;60484.78;4975872;28;20305;-69
2021/12/02 10:38:10;;;;;;;5.60;1.80;;;;;;;-145.18;100.00;60484.78;4964658;28;20431;-68
2021/12/02 10:40:36;;;;;;;5.53;1.70;;;;;;;-145.18;100.00;60484.78;4957028;28;20034;-69
2021/12/02 10:43:08;;;;;;;5.40;2.00;;;;;;;-145.18;100.00;60484.78;4965761;28;20067;-68
2021/12/02 10:45:34;;;;;;;5.93;2.30;;;;;;;-145.18;100.00;60484.78;4957798;28;20042;-68
2021/12/02 10:47:59;;;;;;;6.63;2.40;;;;;;;-145.18;100.00;60484.78;4971692;28;20483;-69
2021/12/02 10:50:27;;;;;;;7.00;3.37;;;;;;;-145.18;100.00;60484.78;4968490;28;20582;-68
2021/12/02 10:52:53;;;;;;;7.80;3.00;;;;;;;-145.18;100.00;60484.78;4964917;28;20718;-68
2021/12/02 10:55:22;;;;;;;7.37;3.07;;;;;;;-145.18;100.00;60484.78;4971657;28;20089;-68
2021/12/02 10:57:54;;;;;;;8.17;3.43;;;;;;;-145.18;100.00;60484.78;4965466;28;20034;-68
2021/12/02 11:00:43;;;;;;;6.85;2.92;;;;;;;-145.18;100.00;60484.78;5058402;28;20488;-68
2021/12/02 11:03:13;;;;;;;8.50;3.83;;;;;;;-145.18;100.00;60484.78;5058816;28;20179;-68
2021/12/02 11:05:45;;;;;;;10.90;4.23;;;;;;;-145.18;100.00;60484.78;5063435;28;20044;-68
2021/12/02 11:08:12;;;;;;;9.38;3.67;;;;;;;-145.18;100.00;60484.78;5062240;28;20039;-68
2021/12/02 11:10:42;;;;;;;9.23;3.73;;;;;;;-145.18;100.00;60484.78;5062470;28;20104;-68
2021/12/02 11:13:10;;;;;;;8.87;4.10;;;;;;;-145.18;100.00;60484.78;5063226;28;20040;-68
2021/12/02 11:15:39;;;;;;;9.77;3.53;;;;;;;-145.18;100.00;60484.78;5064341;28;20218;-68
2021/12/02 11:18:11;;;;;;;10.80;4.13;;;;;;;-145.18;100.00;60484.78;5063619;28;20032;-68
2021/12/02 11:20:37;;;;;;;9.68;3.45;;;;;;;-145.18;100.00;60484.78;5063807;28;20021;-68
2021/12/02 11:23:11;;;;;;;11.23;3.57;;;;;;;-145.18;100.00;60484.78;5065238;28;20314;-68
2021/12/02 11:25:39;;;;;;;10.10;3.17;;;;;;;-145.18;100.00;60484.78;5052907;28;20031;-69
2021/12/02 11:28:08;;;;;;;6.93;2.93;;;;;;;-145.18;100.00;60484.78;5064475;28;20290;-68
2021/12/02 11:30:37;;;;;;;3.00;1.23;;;;;;;-145.18;100.00;60484.78;5060641;28;20025;-68
2021/12/02 11:33:08;;;;;;;3.50;1.57;;;;;;;-145.18;100.00;60484.78;5065694;28;20423;-68
2021/12/02 11:35:48;;;;;;;3.93;1.40;;;;;;;-145.18;100.00;60484.78;5064440;28;20089;-68